WIZ880 EDDN-EDDC
Flight info
| Callsign | WIZ880 |
|---|---|
| Flight time | N/A |
| Altitude | 19000 |
| Route | ERETO1G ERETO Z715 ABKIS Q240 DRN |
| Aircraft | A20N/M-SDE2E3FGHIRWXY/LB1 |
Departure
| Time | 2026-05-07 13:13 |
|---|---|
| Airport | Nuremberg Airport (EDDN) |
Arrival
| Time | N/A |
|---|---|
| Airport | Dresden Airport (EDDC) |
| Time | Latitude | Longitude | Altitude | Speed | Heading |
|---|---|---|---|---|---|
| 2026-05-07 12:45 | 49.49526 | 11.07660 | 1030 ft | 0 kts | 188° |
| 2026-05-07 12:59 | 49.49538 | 11.07662 | 1028 ft | 3 kts | 186° |
| 2026-05-07 12:59 | 49.49555 | 11.07664 | 1029 ft | 2 kts | 191° |
| 2026-05-07 13:00 | 49.49571 | 11.07669 | 1032 ft | 2 kts | 154° |
| 2026-05-07 13:00 | 49.49583 | 11.07652 | 1031 ft | 2 kts | 96° |
| 2026-05-07 13:00 | 49.49583 | 11.07651 | 1031 ft | 0 kts | 96° |
| 2026-05-07 13:03 | 49.49583 | 11.07657 | 1031 ft | 1 kts | 98° |
| 2026-05-07 13:03 | 49.49583 | 11.07671 | 1031 ft | 2 kts | 87° |
| 2026-05-07 13:03 | 49.49583 | 11.07778 | 1033 ft | 17 kts | 92° |
| 2026-05-07 13:03 | 49.49580 | 11.07819 | 1033 ft | 0 kts | 98° |
| 2026-05-07 13:04 | 49.49571 | 11.07914 | 1033 ft | 18 kts | 98° |
| 2026-05-07 13:04 | 49.49557 | 11.08059 | 1033 ft | 15 kts | 96° |
| 2026-05-07 13:04 | 49.49543 | 11.08214 | 1033 ft | 14 kts | 98° |
| 2026-05-07 13:04 | 49.49552 | 11.08339 | 1035 ft | 8 kts | 29° |
| 2026-05-07 13:05 | 49.49609 | 11.08402 | 1034 ft | 12 kts | 64° |
| 2026-05-07 13:05 | 49.49610 | 11.08497 | 1035 ft | 8 kts | 100° |
| 2026-05-07 13:05 | 49.49599 | 11.08608 | 1037 ft | 13 kts | 98° |
| 2026-05-07 13:05 | 49.49582 | 11.08782 | 1038 ft | 19 kts | 102° |
| 2026-05-07 13:06 | 49.49566 | 11.08958 | 1040 ft | 17 kts | 95° |
| 2026-05-07 13:06 | 49.49551 | 11.09154 | 1041 ft | 17 kts | 110° |
| 2026-05-07 13:06 | 49.49533 | 11.09313 | 1044 ft | 14 kts | 96° |
| 2026-05-07 13:06 | 49.49578 | 11.09446 | 1045 ft | 15 kts | 56° |
| 2026-05-07 13:07 | 49.49601 | 11.09491 | 1045 ft | 0 kts | 55° |
| 2026-05-07 13:07 | 49.49604 | 11.09498 | 1046 ft | 3 kts | 56° |
| 2026-05-07 13:07 | 49.49623 | 11.09538 | 1047 ft | 7 kts | 45° |
| 2026-05-07 13:07 | 49.49678 | 11.09558 | 1048 ft | 8 kts | 346° |
| 2026-05-07 13:08 | 49.49703 | 11.09480 | 1047 ft | 0 kts | 276° |
| 2026-05-07 13:10 | 49.49704 | 11.09466 | 1046 ft | 0 kts | 280° |
| 2026-05-07 13:12 | 49.49705 | 11.09463 | 1046 ft | 2 kts | 280° |
| 2026-05-07 13:12 | 49.49737 | 11.09166 | 1044 ft | 72 kts | 277° |
| 2026-05-07 13:12 | 49.49877 | 11.07895 | 1093 ft | 158 kts | 281° |
| 2026-05-07 13:13 | 49.50091 | 11.06148 | 1768 ft | 179 kts | 278° |
| 2026-05-07 13:13 | 49.50267 | 11.04134 | 2515 ft | 194 kts | 277° |
| 2026-05-07 13:13 | 49.50399 | 11.01944 | 3237 ft | 222 kts | 275° |
| 2026-05-07 13:13 | 49.50600 | 10.99443 | 3513 ft | 244 kts | 279° |
| 2026-05-07 13:14 | 49.50878 | 10.96838 | 3695 ft | 252 kts | 279° |
| 2026-05-07 13:14 | 49.51232 | 10.94119 | 4569 ft | 264 kts | 289° |
| 2026-05-07 13:14 | 49.52290 | 10.91854 | 5789 ft | 261 kts | 320° |
| 2026-05-07 13:14 | 49.53972 | 10.90861 | 6555 ft | 266 kts | 353° |
| 2026-05-07 13:15 | 49.55844 | 10.91184 | 6909 ft | 274 kts | 8° |
| 2026-05-07 13:15 | 49.57720 | 10.91750 | 6991 ft | 275 kts | 6° |
| 2026-05-07 13:15 | 49.59621 | 10.92170 | 6995 ft | 275 kts | 3° |
| 2026-05-07 13:15 | 49.61524 | 10.92440 | 6992 ft | 275 kts | 0° |
| 2026-05-07 13:16 | 49.63411 | 10.92610 | 6993 ft | 275 kts | 359° |
| 2026-05-07 13:16 | 49.65320 | 10.92727 | 6990 ft | 275 kts | 358° |
| 2026-05-07 13:16 | 49.67231 | 10.92812 | 6989 ft | 274 kts | 358° |
| 2026-05-07 13:16 | 49.69139 | 10.92882 | 6991 ft | 274 kts | 359° |
| 2026-05-07 13:17 | 49.70985 | 10.93571 | 6988 ft | 279 kts | 27° |
| 2026-05-07 13:17 | 49.72522 | 10.95423 | 6988 ft | 282 kts | 40° |
| 2026-05-07 13:17 | 49.73956 | 10.97504 | 6985 ft | 283 kts | 40° |
| 2026-05-07 13:17 | 49.75398 | 10.99576 | 6985 ft | 283 kts | 40° |
| 2026-05-07 13:18 | 49.76863 | 11.01620 | 6980 ft | 283 kts | 39° |
| 2026-05-07 13:18 | 49.78334 | 11.03628 | 6983 ft | 282 kts | 38° |
| 2026-05-07 13:18 | 49.79816 | 11.05626 | 6983 ft | 282 kts | 38° |
| 2026-05-07 13:18 | 49.81305 | 11.07620 | 6977 ft | 283 kts | 38° |
| 2026-05-07 13:19 | 49.82794 | 11.09605 | 6979 ft | 282 kts | 38° |
| 2026-05-07 13:19 | 49.84169 | 11.11722 | 6967 ft | 285 kts | 54° |
| 2026-05-07 13:19 | 49.85086 | 11.14454 | 6974 ft | 286 kts | 62° |
| 2026-05-07 13:19 | 49.85934 | 11.17247 | 6977 ft | 286 kts | 64° |
| 2026-05-07 13:20 | 49.86766 | 11.20060 | 6972 ft | 287 kts | 63° |
| 2026-05-07 13:20 | 49.87607 | 11.22866 | 6972 ft | 287 kts | 63° |
| 2026-05-07 13:20 | 49.88455 | 11.25663 | 6966 ft | 285 kts | 63° |